createdAt,value
2018-07-27T00:00:16.884Z,58.2
2018-07-27T00:01:16.934Z,57.8
2018-07-27T00:02:17.228Z,58.4
2018-07-27T00:03:16.502Z,57.8
2018-07-27T00:04:16.771Z,58.1
2018-07-27T00:05:17.057Z,57.8
2018-07-27T00:06:16.335Z,58.2
2018-07-27T00:07:16.635Z,58.3
2018-07-27T00:08:16.891Z,58.5
2018-07-27T00:09:17.151Z,58.7
2018-07-27T00:10:16.419Z,58.9
2018-07-27T00:11:16.474Z,58.9
2018-07-27T00:12:16.746Z,59.0
2018-07-27T00:13:17.021Z,59.4
2018-07-27T00:14:16.300Z,59.0
2018-07-27T00:15:16.567Z,59.1
2018-07-27T00:16:16.843Z,59.2
2018-07-27T00:17:17.109Z,59.4
2018-07-27T00:18:16.404Z,60.0
2018-07-27T00:19:16.677Z,59.9
2018-07-27T00:20:16.965Z,60.1
2018-07-27T00:21:16.995Z,60.8
2018-07-27T00:22:16.257Z,60.8
2018-07-27T00:23:16.528Z,61.2
2018-07-27T00:24:16.792Z,61.2
2018-07-27T00:25:17.063Z,61.7
2018-07-27T00:26:16.326Z,61.6
2018-07-27T00:27:16.596Z,62.0
2018-07-27T00:28:16.862Z,61.8
2018-07-27T00:29:17.135Z,61.8
2018-07-27T00:30:16.428Z,61.6
2018-07-27T00:31:16.461Z,61.7
2018-07-27T00:32:16.740Z,61.9
2018-07-27T00:33:17.019Z,62.0
2018-07-27T00:34:16.293Z,62.4
2018-07-27T00:35:16.576Z,62.0
2018-07-27T00:36:16.839Z,61.6
2018-07-27T00:37:17.100Z,62.0
2018-07-27T00:38:16.367Z,61.9
2018-07-27T00:39:16.635Z,62.2
2018-07-27T00:40:16.921Z,62.6
2018-07-27T00:41:17.197Z,62.8
2018-07-27T00:42:16.468Z,62.6
2018-07-27T00:43:16.732Z,63.2
2018-07-27T00:44:16.995Z,63.1
2018-07-27T00:45:16.282Z,63.3
2018-07-27T00:46:16.560Z,63.3
2018-07-27T00:47:16.828Z,63.6
2018-07-27T00:48:17.087Z,63.9
2018-07-27T00:49:16.354Z,64.0
2018-07-27T00:50:16.639Z,64.2
2018-07-27T00:51:16.675Z,64.0
2018-07-27T00:52:16.989Z,64.2
2018-07-27T00:53:16.252Z,64.3
2018-07-27T00:54:16.519Z,64.1
2018-07-27T00:55:16.831Z,63.5
2018-07-27T00:56:17.097Z,63.6
2018-07-27T00:57:16.376Z,63.8
2018-07-27T00:58:16.646Z,63.7
2018-07-27T00:59:16.917Z,63.5
2018-07-27T01:00:17.201Z,63.9
2018-07-27T01:01:17.232Z,63.9
2018-07-27T01:02:16.499Z,63.3
2018-07-27T01:03:16.778Z,63.4
2018-07-27T01:04:17.059Z,63.9
2018-07-27T01:05:16.329Z,64.0
2018-07-27T01:06:16.605Z,64.2
2018-07-27T01:07:16.873Z,64.2
2018-07-27T01:08:17.144Z,63.9
2018-07-27T01:09:16.418Z,63.6
2018-07-27T01:10:16.696Z,63.7
2018-07-27T01:11:16.745Z,64.2
2018-07-27T01:12:17.014Z,64.4
2018-07-27T01:13:16.289Z,64.2
2018-07-27T01:14:16.558Z,64.6
2018-07-27T01:15:16.831Z,64.8
2018-07-27T01:16:17.099Z,64.5
2018-07-27T01:17:16.369Z,64.5
2018-07-27T01:18:16.640Z,64.8
2018-07-27T01:19:16.918Z,64.8
2018-07-27T01:20:17.205Z,64.9
2018-07-27T01:21:17.251Z,65.2
2018-07-27T01:22:16.517Z,65.2
2018-07-27T01:23:16.787Z,65.4
2018-07-27T01:24:17.048Z,65.7
2018-07-27T01:25:16.317Z,65.8
2018-07-27T01:26:16.593Z,66.2
2018-07-27T01:27:16.857Z,66.1
2018-07-27T01:28:17.327Z,66.0
2018-07-27T01:29:16.596Z,64.7
2018-07-27T01:30:16.876Z,64.8
2018-07-27T01:31:16.912Z,64.5
2018-07-27T01:32:17.206Z,64.8
2018-07-27T01:33:16.472Z,65.0
2018-07-27T01:34:16.745Z,65.0
2018-07-27T01:35:17.032Z,64.8
2018-07-27T01:36:16.300Z,64.6
2018-07-27T01:37:16.568Z,64.3
2018-07-27T01:38:16.840Z,64.5
2018-07-27T01:39:17.099Z,64.3
2018-07-27T01:40:16.379Z,64.8
2018-07-27T01:41:16.418Z,64.7
2018-07-27T01:42:16.691Z,64.2
2018-07-27T01:43:16.948Z,64.4
2018-07-27T01:44:17.211Z,64.7
2018-07-27T01:45:16.493Z,64.5
2018-07-27T01:46:16.764Z,64.7
2018-07-27T01:47:17.036Z,65.1
2018-07-27T01:48:16.303Z,65.0
2018-07-27T01:49:16.580Z,65.2
2018-07-27T01:50:16.886Z,66.1
2018-07-27T01:51:16.908Z,66.0
2018-07-27T01:52:17.179Z,65.8
2018-07-27T01:53:16.446Z,65.9
2018-07-27T01:54:16.710Z,66.2
2018-07-27T01:55:16.987Z,66.2
2018-07-27T01:56:17.259Z,66.5
2018-07-27T01:57:16.534Z,66.6
2018-07-27T01:58:16.808Z,67.2
2018-07-27T01:59:17.090Z,67.2
2018-07-27T02:00:16.367Z,66.9
2018-07-27T02:01:16.408Z,67.2
2018-07-27T02:02:16.677Z,67.4
2018-07-27T02:03:16.941Z,67.0
2018-07-27T02:04:17.200Z,66.9
2018-07-27T02:05:16.481Z,67.0
2018-07-27T02:06:16.748Z,67.9
2018-07-27T02:07:17.017Z,67.5
2018-07-27T02:08:16.303Z,68.1
2018-07-27T02:09:16.573Z,68.2
2018-07-27T02:10:16.853Z,69.2
2018-07-27T02:11:16.901Z,68.7
2018-07-27T02:12:17.159Z,68.8
2018-07-27T02:13:16.432Z,69.0
2018-07-27T02:14:16.698Z,68.7
2018-07-27T02:15:16.974Z,69.0
2018-07-27T02:16:17.233Z,68.8
2018-07-27T02:17:16.513Z,69.0
2018-07-27T02:18:16.768Z,69.2
2018-07-27T02:19:17.037Z,69.3
2018-07-27T02:20:16.324Z,69.7
2018-07-27T02:21:16.355Z,69.8
2018-07-27T02:22:16.620Z,70.0
2018-07-27T02:23:16.893Z,70.0
2018-07-27T02:24:17.158Z,70.5
2018-07-27T02:25:16.422Z,70.0
2018-07-27T02:26:16.702Z,70.0
2018-07-27T02:27:16.983Z,70.0
2018-07-27T02:28:17.270Z,70.4
2018-07-27T02:29:16.550Z,70.2
2018-07-27T02:30:16.828Z,70.1
2018-07-27T02:31:16.866Z,70.0
2018-07-27T02:32:17.138Z,70.0
2018-07-27T02:33:16.411Z,69.4
2018-07-27T02:34:16.685Z,69.7
2018-07-27T02:35:16.969Z,70.5
2018-07-27T02:36:17.260Z,70.9
2018-07-27T02:37:16.531Z,71.2
2018-07-27T02:38:16.800Z,71.0
2018-07-27T02:39:17.079Z,71.2
2018-07-27T02:40:16.366Z,71.2
2018-07-27T02:41:16.422Z,71.3
2018-07-27T02:42:16.702Z,71.0
2018-07-27T02:43:16.978Z,71.0
2018-07-27T02:44:17.546Z,71.1
2018-07-27T02:45:16.837Z,71.2
2018-07-27T02:46:17.099Z,71.3
2018-07-27T02:47:16.610Z,71.2
2018-07-27T02:48:16.889Z,71.2
2018-07-27T02:49:17.181Z,71.0
2018-07-27T02:50:16.465Z,71.5
2018-07-27T02:51:16.636Z,71.3
2018-07-27T02:52:16.927Z,71.4
2018-07-27T02:53:17.199Z,71.5
2018-07-27T02:54:16.468Z,72.2
2018-07-27T02:55:16.748Z,72.0
2018-07-27T02:56:17.009Z,72.4
2018-07-27T02:57:16.284Z,72.2
2018-07-27T02:58:16.552Z,72.2
2018-07-27T02:59:16.827Z,72.1
2018-07-27T03:00:17.113Z,72.3
2018-07-27T03:01:17.159Z,72.5
2018-07-27T03:02:16.443Z,72.5
2018-07-27T03:03:16.735Z,72.7
2018-07-27T03:04:17.005Z,72.9
2018-07-27T03:05:16.313Z,72.7
2018-07-27T03:06:16.579Z,72.7
2018-07-27T03:07:16.875Z,72.5
2018-07-27T03:08:17.144Z,72.5
2018-07-27T03:09:16.419Z,72.5
2018-07-27T03:10:16.741Z,72.5
2018-07-27T03:11:16.743Z,72.6
2018-07-27T03:12:17.022Z,73.0
2018-07-27T03:13:16.298Z,73.0
2018-07-27T03:14:16.575Z,73.0
2018-07-27T03:15:16.854Z,73.0
2018-07-27T03:16:17.125Z,72.8
2018-07-27T03:17:16.410Z,72.9
2018-07-27T03:18:16.684Z,72.8
2018-07-27T03:19:16.963Z,73.0
2018-07-27T03:20:17.242Z,73.2
2018-07-27T03:21:16.286Z,73.4
2018-07-27T03:22:16.565Z,73.5
2018-07-27T03:23:16.834Z,73.3
2018-07-27T03:24:17.111Z,73.5
2018-07-27T03:25:16.390Z,74.2
2018-07-27T03:26:16.653Z,74.3
2018-07-27T03:27:16.919Z,74.5
2018-07-27T03:28:17.191Z,74.5
2018-07-27T03:29:16.472Z,74.5
2018-07-27T03:30:16.766Z,74.5
2018-07-27T03:31:16.785Z,74.5
2018-07-27T03:32:17.104Z,74.4
2018-07-27T03:33:16.372Z,74.5
2018-07-27T03:34:16.653Z,75.2
2018-07-27T03:35:16.939Z,75.0
2018-07-27T03:36:17.204Z,74.2
2018-07-27T03:37:16.475Z,73.8
2018-07-27T03:38:16.798Z,74.1
2018-07-27T03:39:17.140Z,74.2
2018-07-27T03:40:16.415Z,74.0
2018-07-27T03:41:16.487Z,74.0
2018-07-27T03:42:16.759Z,74.2
2018-07-27T03:43:17.031Z,74.3
2018-07-27T03:44:16.305Z,74.5
2018-07-27T03:45:16.583Z,74.7
2018-07-27T03:46:16.865Z,74.7
2018-07-27T03:47:17.133Z,74.8
2018-07-27T03:48:16.411Z,75.2
2018-07-27T03:49:16.685Z,75.3
2018-07-27T03:50:16.956Z,75.2
2018-07-27T03:51:17.014Z,75.3
2018-07-27T03:52:16.279Z,75.3
2018-07-27T03:53:16.570Z,75.3
2018-07-27T03:54:16.833Z,75.2
2018-07-27T03:55:17.106Z,75.8
2018-07-27T03:56:16.368Z,75.6
2018-07-27T03:57:16.639Z,75.4
2018-07-27T03:58:16.909Z,75.4
2018-07-27T03:59:17.176Z,75.1
2018-07-27T04:00:16.450Z,75.2
2018-07-27T04:01:16.502Z,75.1
2018-07-27T04:02:16.895Z,75.5
2018-07-27T04:03:17.228Z,75.3
2018-07-27T04:04:16.504Z,75.7
2018-07-27T04:05:16.779Z,75.5
2018-07-27T04:06:17.059Z,75.4
2018-07-27T04:07:16.442Z,75.2
2018-07-27T04:08:16.723Z,75.3
2018-07-27T04:09:16.998Z,75.3
2018-07-27T04:10:16.279Z,75.0
2018-07-27T04:11:16.329Z,74.9
2018-07-27T04:12:16.720Z,74.9
2018-07-27T04:13:16.990Z,75.3
2018-07-27T04:14:16.267Z,75.4
2018-07-27T04:15:16.564Z,75.5
2018-07-27T04:16:16.823Z,75.7
2018-07-27T04:17:17.280Z,75.7
2018-07-27T04:18:16.562Z,75.7
2018-07-27T04:19:16.830Z,75.6
2018-07-27T04:20:17.104Z,75.5
2018-07-27T04:21:17.151Z,75.3
2018-07-27T04:22:16.419Z,75.2
2018-07-27T04:23:16.705Z,75.8
2018-07-27T04:24:16.975Z,75.8
2018-07-27T04:25:17.241Z,75.8
2018-07-27T04:26:16.599Z,68.1
2018-07-27T04:27:16.877Z,67.9
2018-07-27T04:28:17.281Z,68.0
2018-07-27T04:29:16.548Z,67.7
2018-07-27T04:30:16.825Z,74.8
2018-07-27T04:31:16.871Z,74.8
2018-07-27T04:32:17.171Z,74.5
2018-07-27T04:33:16.436Z,74.2
2018-07-27T04:34:16.768Z,74.2
2018-07-27T04:35:17.033Z,74.3
2018-07-27T04:36:16.305Z,74.4
2018-07-27T04:37:16.582Z,74.4
2018-07-27T04:38:16.855Z,74.2
2018-07-27T04:39:17.126Z,74.0
2018-07-27T04:40:16.406Z,73.9
2018-07-27T04:41:16.457Z,66.9
2018-07-27T04:42:16.726Z,66.9
2018-07-27T04:43:16.999Z,66.6
2018-07-27T04:44:16.284Z,66.5
2018-07-27T04:45:16.562Z,66.4
2018-07-27T04:46:16.835Z,66.8
2018-07-27T04:47:17.099Z,66.4
2018-07-27T04:48:16.363Z,66.5
2018-07-27T04:49:16.653Z,74.0
2018-07-27T04:50:16.949Z,73.9
2018-07-27T04:51:16.961Z,73.1
2018-07-27T04:52:17.229Z,72.8
2018-07-27T04:53:16.519Z,72.5
2018-07-27T04:54:16.785Z,72.0
2018-07-27T04:55:17.049Z,72.0
2018-07-27T04:56:16.393Z,71.8
2018-07-27T04:57:16.683Z,71.7
2018-07-27T04:58:16.948Z,71.9
2018-07-27T04:59:17.218Z,71.3
2018-07-27T05:00:16.496Z,70.8
2018-07-27T05:01:16.531Z,70.6
2018-07-27T05:02:16.792Z,71.0
2018-07-27T05:03:17.071Z,71.0
2018-07-27T05:04:16.339Z,71.0
2018-07-27T05:05:16.621Z,71.4
2018-07-27T05:06:16.883Z,71.0
2018-07-27T05:07:17.155Z,71.7
2018-07-27T05:08:16.430Z,73.3
2018-07-27T05:09:16.706Z,72.8
2018-07-27T05:10:16.984Z,71.9
2018-07-27T05:11:17.026Z,72.0
2018-07-27T05:12:16.314Z,71.9
2018-07-27T05:13:16.579Z,71.2
2018-07-27T05:14:16.847Z,71.2
2018-07-27T05:15:17.120Z,70.8
2018-07-27T05:16:16.396Z,70.7
2018-07-27T05:17:16.664Z,71.4
2018-07-27T05:18:17.034Z,71.4
2018-07-27T05:19:16.353Z,71.5
2018-07-27T05:20:16.632Z,71.1
2018-07-27T05:21:16.671Z,71.1
2018-07-27T05:22:16.942Z,70.7
2018-07-27T05:23:17.210Z,70.6
2018-07-27T05:24:16.472Z,71.2
2018-07-27T05:25:16.738Z,71.8
2018-07-27T05:26:17.003Z,71.3
2018-07-27T05:27:16.266Z,71.0
2018-07-27T05:28:16.533Z,71.5
2018-07-27T05:29:16.797Z,72.1
2018-07-27T05:30:17.087Z,71.3
2018-07-27T05:31:17.099Z,71.1
2018-07-27T05:32:16.371Z,71.1
2018-07-27T05:33:16.647Z,70.8
2018-07-27T05:34:16.965Z,70.7
2018-07-27T05:35:17.288Z,69.6
2018-07-27T05:36:16.591Z,69.8
2018-07-27T05:37:16.871Z,69.7
2018-07-27T05:38:17.131Z,69.5
2018-07-27T05:39:16.396Z,69.4
2018-07-27T05:40:16.677Z,69.0
2018-07-27T05:41:16.727Z,68.6
2018-07-27T05:42:16.993Z,68.2
2018-07-27T05:43:16.254Z,67.7
2018-07-27T05:44:16.524Z,68.4
2018-07-27T05:45:16.814Z,67.7
2018-07-27T05:46:17.085Z,67.8
2018-07-27T05:47:16.565Z,67.4
2018-07-27T05:48:17.014Z,67.4
2018-07-27T05:49:16.291Z,67.5
2018-07-27T05:50:16.563Z,66.7
2018-07-27T05:51:16.598Z,66.0
2018-07-27T05:52:16.873Z,66.3
2018-07-27T05:53:17.144Z,65.7
2018-07-27T05:54:16.418Z,66.0
2018-07-27T05:55:16.720Z,65.8
2018-07-27T05:56:16.994Z,65.5
2018-07-27T05:57:16.263Z,65.5
2018-07-27T05:58:16.539Z,65.8
2018-07-27T05:59:16.865Z,64.6
2018-07-27T06:00:17.162Z,64.6
2018-07-27T06:01:17.522Z,64.5
2018-07-27T06:02:16.857Z,63.6
2018-07-27T06:03:17.143Z,64.7
2018-07-27T06:04:16.418Z,64.1
2018-07-27T06:05:16.685Z,64.4
2018-07-27T06:06:16.962Z,64.3
2018-07-27T06:07:17.225Z,63.4
2018-07-27T06:08:16.494Z,63.0
2018-07-27T06:09:16.764Z,63.0
2018-07-27T06:10:17.047Z,63.4
2018-07-27T06:11:17.288Z,62.6
2018-07-27T06:12:16.598Z,62.0
2018-07-27T06:13:16.865Z,61.8
2018-07-27T06:14:17.155Z,61.6
2018-07-27T06:15:16.442Z,61.2
2018-07-27T06:16:16.710Z,62.3
2018-07-27T06:17:16.988Z,61.8
2018-07-27T06:18:17.339Z,61.1
2018-07-27T06:19:16.601Z,61.0
2018-07-27T06:20:16.882Z,61.7
2018-07-27T06:21:16.919Z,61.3
2018-07-27T06:22:17.183Z,60.4
2018-07-27T06:23:16.454Z,59.7
2018-07-27T06:24:17.139Z,58.2
2018-07-27T06:25:16.540Z,58.3
2018-07-27T06:26:16.827Z,58.5
2018-07-27T06:27:17.101Z,59.9
2018-07-27T06:28:16.558Z,59.6
2018-07-27T06:29:16.996Z,59.1
2018-07-27T06:30:16.289Z,58.8
2018-07-27T06:31:16.366Z,58.0
2018-07-27T06:32:16.634Z,57.8
2018-07-27T06:33:16.907Z,57.6
2018-07-27T06:34:17.498Z,57.2
2018-07-27T06:35:16.766Z,56.2
2018-07-27T06:36:17.042Z,55.5
2018-07-27T06:37:16.307Z,55.2
2018-07-27T06:38:16.572Z,54.0
2018-07-27T06:39:16.857Z,54.7
2018-07-27T06:40:17.144Z,54.0
2018-07-27T06:41:16.296Z,53.9
2018-07-27T06:42:16.604Z,53.3
2018-07-27T06:43:16.867Z,52.2
2018-07-27T06:44:17.149Z,52.6
2018-07-27T06:45:16.646Z,51.8
2018-07-27T06:46:16.971Z,52.0
2018-07-27T06:47:17.244Z,52.5
2018-07-27T06:48:16.520Z,50.9
2018-07-27T06:49:16.785Z,50.6
2018-07-27T06:50:17.053Z,49.4
2018-07-27T06:51:17.103Z,51.0
2018-07-27T06:52:16.382Z,51.7
2018-07-27T06:53:16.648Z,50.1
2018-07-27T06:54:16.937Z,50.2
2018-07-27T06:55:17.216Z,49.9
2018-07-27T06:56:16.481Z,49.4
2018-07-27T06:57:16.752Z,49.5
2018-07-27T06:58:17.021Z,48.9
2018-07-27T06:59:16.290Z,48.3
2018-07-27T07:00:16.569Z,48.8
2018-07-27T07:01:16.932Z,46.7
2018-07-27T07:02:17.218Z,46.8
2018-07-27T07:03:16.496Z,47.8
2018-07-27T07:04:16.770Z,48.5
2018-07-27T07:05:17.176Z,48.2
2018-07-27T07:06:16.450Z,47.4
2018-07-27T07:07:16.725Z,47.1
2018-07-27T07:08:16.993Z,46.3
2018-07-27T07:09:16.255Z,46.0
2018-07-27T07:10:16.551Z,46.2
2018-07-27T07:11:16.575Z,47.3
2018-07-27T07:12:16.845Z,47.2
2018-07-27T07:13:17.133Z,45.9
2018-07-27T07:14:16.423Z,46.5
2018-07-27T07:15:16.712Z,47.0
2018-07-27T07:16:16.978Z,47.2
2018-07-27T07:17:17.250Z,45.5
2018-07-27T07:18:16.524Z,45.0
2018-07-27T07:19:16.796Z,44.0
2018-07-27T07:20:17.077Z,45.1
2018-07-27T07:21:17.133Z,45.7
2018-07-27T07:22:16.419Z,45.2
2018-07-27T07:23:16.710Z,45.2
2018-07-27T07:24:16.975Z,46.2
2018-07-27T07:25:17.578Z,47.0
2018-07-27T07:26:16.939Z,45.0
2018-07-27T07:27:17.214Z,44.4
2018-07-27T07:28:16.486Z,43.6
2018-07-27T07:29:16.749Z,43.4
2018-07-27T07:30:17.019Z,43.3
2018-07-27T07:31:17.086Z,44.0
2018-07-27T07:32:16.361Z,44.3
2018-07-27T07:33:16.736Z,43.7
2018-07-27T07:34:17.062Z,42.0
2018-07-27T07:35:16.328Z,42.0
2018-07-27T07:36:16.601Z,42.7
2018-07-27T07:37:16.870Z,42.1
2018-07-27T07:38:17.138Z,40.6
2018-07-27T07:39:16.657Z,42.1
2018-07-27T07:40:16.965Z,41.2
2018-07-27T07:41:17.020Z,40.0
2018-07-27T07:42:16.291Z,39.8
2018-07-27T07:43:16.556Z,40.6
2018-07-27T07:44:16.830Z,41.1
2018-07-27T07:45:17.124Z,41.6
2018-07-27T07:46:16.409Z,41.0
2018-07-27T07:47:16.677Z,40.4
2018-07-27T07:48:16.952Z,39.1
2018-07-27T07:49:17.299Z,39.0
2018-07-27T07:50:16.585Z,38.8
2018-07-27T07:51:16.647Z,37.9
2018-07-27T07:52:16.923Z,38.5
2018-07-27T07:53:17.185Z,39.9
2018-07-27T07:54:16.455Z,38.9
2018-07-27T07:55:16.737Z,38.2
2018-07-27T07:56:17.003Z,38.9
2018-07-27T07:57:16.276Z,39.2
2018-07-27T07:58:16.540Z,38.5
2018-07-27T07:59:16.809Z,38.2
2018-07-27T08:00:17.086Z,38.8
2018-07-27T08:01:17.140Z,39.3
2018-07-27T08:02:16.411Z,38.8
2018-07-27T08:03:16.692Z,37.0
2018-07-27T08:04:17.071Z,37.4
2018-07-27T08:05:16.352Z,37.9
2018-07-27T08:06:16.627Z,38.2
2018-07-27T08:07:16.899Z,38.5
2018-07-27T08:08:17.164Z,39.1
2018-07-27T08:09:16.439Z,39.1
2018-07-27T08:10:16.718Z,38.2
2018-07-27T08:11:16.907Z,38.0
2018-07-27T08:12:17.240Z,37.8
2018-07-27T08:13:16.508Z,36.9
2018-07-27T08:14:16.777Z,38.5
2018-07-27T08:15:17.055Z,38.0
2018-07-27T08:16:16.328Z,37.5
2018-07-27T08:17:16.669Z,36.9
2018-07-27T08:18:16.988Z,36.2
2018-07-27T08:19:17.278Z,36.7
2018-07-27T08:20:16.553Z,38.2
2018-07-27T08:21:16.607Z,38.0
2018-07-27T08:22:16.876Z,37.0
2018-07-27T08:23:17.143Z,37.9
2018-07-27T08:24:16.414Z,36.7
2018-07-27T08:25:16.696Z,37.5
2018-07-27T08:26:16.979Z,37.0
2018-07-27T08:27:17.248Z,38.0
2018-07-27T08:28:16.528Z,37.5
2018-07-27T08:29:16.806Z,37.6
2018-07-27T08:30:17.091Z,36.0
2018-07-27T08:31:17.140Z,36.4
2018-07-27T08:32:16.407Z,35.4
2018-07-27T08:33:16.676Z,35.2
2018-07-27T08:34:16.946Z,36.5
2018-07-27T08:35:17.228Z,36.7
2018-07-27T08:36:16.495Z,37.6
2018-07-27T08:37:16.766Z,37.5
2018-07-27T08:38:17.030Z,37.0
2018-07-27T08:39:16.314Z,36.5
2018-07-27T08:40:16.603Z,36.5
2018-07-27T08:41:16.661Z,36.5
2018-07-27T08:42:16.933Z,36.4
2018-07-27T08:43:17.201Z,36.1
2018-07-27T08:44:16.483Z,36.8
2018-07-27T08:45:16.753Z,37.5
2018-07-27T08:46:17.022Z,36.0
2018-07-27T08:47:16.462Z,36.0
2018-07-27T08:48:16.740Z,35.3
2018-07-27T08:49:17.019Z,36.4
2018-07-27T08:50:16.309Z,37.1
2018-07-27T08:51:16.352Z,36.2
2018-07-27T08:52:16.616Z,36.2
2018-07-27T08:53:16.887Z,37.3
2018-07-27T08:54:17.169Z,37.1
2018-07-27T08:55:16.444Z,36.4
2018-07-27T08:56:16.783Z,35.5
2018-07-27T08:57:17.063Z,35.4
2018-07-27T08:58:16.319Z,35.1
2018-07-27T08:59:16.590Z,35.0
2018-07-27T09:00:16.879Z,34.5
2018-07-27T09:01:16.912Z,35.5
2018-07-27T09:02:17.184Z,35.6
2018-07-27T09:03:16.453Z,35.8
2018-07-27T09:04:16.721Z,35.0
2018-07-27T09:05:16.988Z,35.5
2018-07-27T09:06:17.256Z,35.6
2018-07-27T09:07:16.527Z,35.2
2018-07-27T09:08:16.799Z,34.6
2018-07-27T09:09:17.072Z,35.5
2018-07-27T09:10:16.441Z,35.3
2018-07-27T09:11:16.384Z,35.1
2018-07-27T09:12:16.661Z,35.2
2018-07-27T09:13:16.933Z,36.0
2018-07-27T09:14:17.196Z,35.8
2018-07-27T09:15:16.497Z,35.7
2018-07-27T09:16:16.773Z,36.5
2018-07-27T09:17:17.160Z,35.5
2018-07-27T09:18:16.539Z,34.9
2018-07-27T09:19:16.877Z,34.3
2018-07-27T09:20:17.432Z,34.5
2018-07-27T09:21:17.207Z,35.0
2018-07-27T09:22:16.486Z,35.0
2018-07-27T09:23:16.751Z,34.1
2018-07-27T09:24:17.313Z,35.4
2018-07-27T09:25:17.811Z,35.2
2018-07-27T09:26:16.345Z,34.4
2018-07-27T09:27:16.645Z,36.1
2018-07-27T09:28:16.910Z,34.9
2018-07-27T09:29:17.186Z,34.0
2018-07-27T09:30:16.465Z,33.2
2018-07-27T09:31:16.565Z,32.9
2018-07-27T09:32:16.845Z,33.2
2018-07-27T09:33:17.122Z,33.2
2018-07-27T09:34:16.517Z,32.6
2018-07-27T09:35:16.925Z,32.8
2018-07-27T09:36:17.201Z,33.2
2018-07-27T09:37:16.469Z,33.2
2018-07-27T09:38:16.730Z,35.4
2018-07-27T09:39:16.993Z,34.1
2018-07-27T09:40:16.283Z,34.2
2018-07-27T09:41:16.307Z,33.0
2018-07-27T09:42:16.588Z,33.0
2018-07-27T09:43:16.861Z,32.0
2018-07-27T09:44:17.140Z,33.7
2018-07-27T09:45:16.435Z,34.5
2018-07-27T09:46:16.717Z,34.9
2018-07-27T09:47:16.984Z,34.2
2018-07-27T09:48:17.250Z,33.7
2018-07-27T09:49:16.525Z,34.0
2018-07-27T09:50:16.816Z,33.5
2018-07-27T09:51:16.863Z,33.0
2018-07-27T09:52:17.124Z,32.8
2018-07-27T09:53:16.384Z,32.8
2018-07-27T09:54:16.649Z,32.4
2018-07-27T09:55:16.921Z,32.1
2018-07-27T09:56:17.195Z,31.4
2018-07-27T09:57:16.478Z,31.2
2018-07-27T09:58:16.764Z,31.7
2018-07-27T09:59:17.021Z,31.2
2018-07-27T10:00:16.302Z,31.9
2018-07-27T10:01:16.354Z,31.8
2018-07-27T10:02:16.632Z,32.5
2018-07-27T10:03:16.895Z,32.2
2018-07-27T10:04:17.202Z,31.7
2018-07-27T10:05:16.472Z,33.3
2018-07-27T10:06:16.737Z,34.4
2018-07-27T10:07:17.001Z,34.6
2018-07-27T10:08:16.275Z,34.5
2018-07-27T10:09:16.550Z,33.3
2018-07-27T10:10:16.819Z,34.4
2018-07-27T10:11:16.874Z,34.8
2018-07-27T10:12:17.143Z,35.4
2018-07-27T10:13:16.414Z,35.4
2018-07-27T10:14:16.687Z,35.5
2018-07-27T10:15:16.969Z,35.0
2018-07-27T10:16:17.262Z,35.5
2018-07-27T10:17:16.535Z,35.9
2018-07-27T10:18:16.822Z,36.4
2018-07-27T10:19:17.092Z,36.5
2018-07-27T10:20:16.372Z,36.2
2018-07-27T10:21:16.415Z,35.5
2018-07-27T10:22:16.685Z,36.1
2018-07-27T10:23:16.971Z,36.6
2018-07-27T10:24:17.253Z,36.6
2018-07-27T10:25:16.534Z,36.6
2018-07-27T10:26:16.809Z,37.1
2018-07-27T10:27:17.079Z,37.4
2018-07-27T10:28:16.349Z,36.5
2018-07-27T10:29:16.619Z,36.1
2018-07-27T10:30:16.894Z,36.2
2018-07-27T10:31:17.078Z,34.5
2018-07-27T10:32:16.426Z,34.6
2018-07-27T10:33:16.688Z,34.1
2018-07-27T10:34:16.957Z,34.8
2018-07-27T10:35:17.232Z,34.9
2018-07-27T10:36:16.503Z,35.8
2018-07-27T10:37:16.776Z,35.2
2018-07-27T10:38:17.053Z,36.4
2018-07-27T10:39:16.316Z,36.6
2018-07-27T10:40:16.623Z,36.8
2018-07-27T10:41:17.011Z,37.6
2018-07-27T10:42:16.287Z,37.2
2018-07-27T10:43:16.571Z,37.7
2018-07-27T10:44:16.848Z,37.2
2018-07-27T10:45:17.134Z,37.2
2018-07-27T10:46:16.399Z,37.5
2018-07-27T10:47:16.676Z,38.2
2018-07-27T10:48:16.950Z,37.8
2018-07-27T10:49:17.227Z,38.5
2018-07-27T10:50:16.536Z,38.1
2018-07-27T10:51:16.551Z,38.2
2018-07-27T10:52:16.816Z,39.0
2018-07-27T10:53:17.081Z,38.4
2018-07-27T10:54:16.350Z,37.5
2018-07-27T10:55:16.624Z,37.8
2018-07-27T10:56:16.904Z,38.6
2018-07-27T10:57:17.174Z,39.4
2018-07-27T10:58:16.446Z,38.9
2018-07-27T10:59:16.728Z,39.4
2018-07-27T11:00:17.027Z,38.2
2018-07-27T11:01:17.054Z,39.5
2018-07-27T11:02:16.348Z,39.9
2018-07-27T11:03:16.617Z,39.4
2018-07-27T11:04:16.886Z,39.9
2018-07-27T11:05:17.156Z,38.8
2018-07-27T11:06:16.419Z,39.2
2018-07-27T11:07:16.687Z,40.1
2018-07-27T11:08:16.963Z,39.5
2018-07-27T11:09:17.252Z,39.2
2018-07-27T11:10:16.528Z,39.3
2018-07-27T11:11:16.581Z,39.3
2018-07-27T11:12:16.852Z,38.7
2018-07-27T11:13:17.125Z,39.1
2018-07-27T11:14:16.396Z,40.0
2018-07-27T11:15:16.766Z,40.3
2018-07-27T11:16:17.087Z,39.2
2018-07-27T11:17:16.531Z,40.2
2018-07-27T11:18:16.896Z,40.5
2018-07-27T11:19:17.163Z,39.2
2018-07-27T11:20:16.444Z,39.4
2018-07-27T11:21:16.488Z,39.7
2018-07-27T11:22:16.761Z,40.4
2018-07-27T11:23:17.032Z,39.8
2018-07-27T11:24:16.299Z,39.2
2018-07-27T11:25:16.586Z,38.2
2018-07-27T11:26:16.860Z,39.2
2018-07-27T11:27:17.139Z,38.8
2018-07-27T11:28:16.420Z,38.9
2018-07-27T11:29:16.689Z,38.4
2018-07-27T11:30:16.980Z,37.7
2018-07-27T11:31:17.018Z,39.0
2018-07-27T11:32:16.294Z,37.0
2018-07-27T11:33:16.569Z,36.5
2018-07-27T11:34:16.841Z,36.1
2018-07-27T11:35:17.125Z,35.0
2018-07-27T11:36:16.401Z,35.1
2018-07-27T11:37:16.817Z,33.8
2018-07-27T11:38:17.111Z,33.9
2018-07-27T11:39:16.384Z,33.1
2018-07-27T11:40:16.650Z,34.0
2018-07-27T11:41:16.699Z,33.6
2018-07-27T11:42:17.063Z,33.3
2018-07-27T11:43:16.345Z,33.6
2018-07-27T11:44:16.626Z,32.7
2018-07-27T11:45:16.908Z,33.0
2018-07-27T11:46:17.186Z,32.8
2018-07-27T11:47:16.459Z,33.2
2018-07-27T11:48:16.737Z,32.8
2018-07-27T11:49:17.004Z,33.0
2018-07-27T11:50:16.284Z,32.7
2018-07-27T11:51:16.311Z,32.0
2018-07-27T11:52:16.596Z,31.9
2018-07-27T11:53:16.872Z,31.8
2018-07-27T11:54:17.141Z,31.4
2018-07-27T11:55:16.429Z,31.6
2018-07-27T11:56:16.702Z,31.7
2018-07-27T11:57:16.979Z,31.5
2018-07-27T11:58:17.258Z,32.6
2018-07-27T11:59:16.535Z,31.1
2018-07-27T12:00:16.882Z,31.5
2018-07-27T12:01:16.861Z,31.5
2018-07-27T12:02:17.140Z,31.9
2018-07-27T12:03:16.404Z,31.4
2018-07-27T12:04:16.680Z,31.6
2018-07-27T12:05:16.956Z,31.5
2018-07-27T12:06:17.227Z,31.7
2018-07-27T12:07:16.506Z,31.8
2018-07-27T12:08:16.776Z,31.9
2018-07-27T12:09:17.048Z,32.3
2018-07-27T12:10:16.331Z,33.5
2018-07-27T12:11:16.338Z,34.0
2018-07-27T12:12:16.603Z,35.5
2018-07-27T12:13:16.871Z,34.7
2018-07-27T12:14:17.709Z,34.7
2018-07-27T12:15:17.435Z,34.2
2018-07-27T12:16:16.938Z,34.4
2018-07-27T12:17:17.208Z,34.4
2018-07-27T12:18:16.476Z,35.0
2018-07-27T12:19:16.747Z,34.5
2018-07-27T12:20:17.018Z,35.0
2018-07-27T12:21:17.433Z,35.2
2018-07-27T12:22:16.844Z,35.0
2018-07-27T12:23:17.120Z,35.1
2018-07-27T12:24:16.393Z,35.4
2018-07-27T12:25:16.661Z,35.3
2018-07-27T12:26:16.921Z,36.3
2018-07-27T12:27:17.215Z,34.9
2018-07-27T12:28:16.507Z,35.2
2018-07-27T12:29:16.768Z,35.5
2018-07-27T12:30:17.048Z,35.5
2018-07-27T12:31:17.088Z,36.0
2018-07-27T12:32:16.358Z,36.5
2018-07-27T12:33:16.632Z,37.1
2018-07-27T12:34:16.901Z,36.5
2018-07-27T12:35:17.180Z,36.8
2018-07-27T12:36:16.450Z,37.4
2018-07-27T12:37:16.728Z,35.9
2018-07-27T12:38:16.992Z,35.2
2018-07-27T12:39:16.256Z,35.3
2018-07-27T12:40:16.553Z,36.6
2018-07-27T12:41:16.578Z,38.0
2018-07-27T12:42:16.844Z,39.6
2018-07-27T12:43:17.122Z,39.5
2018-07-27T12:44:16.397Z,39.9
2018-07-27T12:45:16.670Z,39.9
2018-07-27T12:46:16.929Z,40.0
2018-07-27T12:47:17.206Z,40.5
2018-07-27T12:48:16.483Z,41.0
2018-07-27T12:49:16.752Z,40.2
2018-07-27T12:50:17.022Z,41.2
2018-07-27T12:51:17.136Z,40.7
2018-07-27T12:52:16.464Z,40.8
2018-07-27T12:53:16.734Z,40.5
2018-07-27T12:54:17.000Z,40.9
2018-07-27T12:55:16.272Z,40.8
2018-07-27T12:56:16.562Z,40.5
2018-07-27T12:57:16.835Z,40.2
2018-07-27T12:58:17.112Z,38.8
2018-07-27T12:59:16.380Z,39.5
2018-07-27T13:00:16.652Z,39.4
2018-07-27T13:01:16.700Z,39.5
2018-07-27T13:02:16.962Z,37.6
2018-07-27T13:03:17.226Z,37.5
2018-07-27T13:04:16.502Z,37.1
2018-07-27T13:05:16.996Z,37.0
2018-07-27T13:06:16.356Z,37.2
2018-07-27T13:07:16.625Z,36.5
2018-07-27T13:08:16.886Z,36.2
2018-07-27T13:09:17.150Z,36.2
2018-07-27T13:10:16.424Z,35.9
2018-07-27T13:11:16.459Z,36.0
2018-07-27T13:12:16.720Z,35.9
2018-07-27T13:13:17.054Z,35.3
2018-07-27T13:14:16.390Z,34.8
2018-07-27T13:15:16.672Z,34.6
2018-07-27T13:16:16.940Z,33.9
2018-07-27T13:17:17.213Z,33.7
2018-07-27T13:18:16.488Z,33.4